sensor_id;sensor_type;location;lat;lon;timestamp;P1;durP1;ratioP1;P2;durP2;ratioP2
65009;SDS011;51556;50.002;22.014;2023-08-12T00:01:35;7.60;;;4.00;;
65009;SDS011;51556;50.002;22.014;2023-08-12T00:04:01;7.40;;;4.00;;
65009;SDS011;51556;50.002;22.014;2023-08-12T00:06:26;8.50;;;4.20;;
65009;SDS011;51556;50.002;22.014;2023-08-12T00:08:53;7.40;;;4.30;;
65009;SDS011;51556;50.002;22.014;2023-08-12T00:11:18;6.60;;;4.40;;
65009;SDS011;51556;50.002;22.014;2023-08-12T00:13:44;5.60;;;3.70;;
65009;SDS011;51556;50.002;22.014;2023-08-12T00:16:09;8.70;;;4.60;;
65009;SDS011;51556;50.002;22.014;2023-08-12T00:18:34;10.70;;;4.50;;
65009;SDS011;51556;50.002;22.014;2023-08-12T00:21:06;8.90;;;4.90;;
65009;SDS011;51556;50.002;22.014;2023-08-12T00:23:37;6.90;;;4.50;;
65009;SDS011;51556;50.002;22.014;2023-08-12T00:26:05;6.20;;;4.40;;
65009;SDS011;51556;50.002;22.014;2023-08-12T00:28:30;8.10;;;4.10;;
65009;SDS011;51556;50.002;22.014;2023-08-12T00:30:55;9.50;;;4.20;;
65009;SDS011;51556;50.002;22.014;2023-08-12T00:33:21;5.80;;;3.50;;
65009;SDS011;51556;50.002;22.014;2023-08-12T00:35:46;7.30;;;3.60;;
65009;SDS011;51556;50.002;22.014;2023-08-12T00:38:12;8.80;;;4.30;;
65009;SDS011;51556;50.002;22.014;2023-08-12T00:40:37;8.70;;;4.20;;
65009;SDS011;51556;50.002;22.014;2023-08-12T00:43:03;6.10;;;3.30;;
65009;SDS011;51556;50.002;22.014;2023-08-12T00:45:28;6.00;;;3.30;;
65009;SDS011;51556;50.002;22.014;2023-08-12T00:47:54;6.90;;;4.20;;
65009;SDS011;51556;50.002;22.014;2023-08-12T00:50:19;8.90;;;4.20;;
65009;SDS011;51556;50.002;22.014;2023-08-12T00:52:45;5.90;;;3.90;;
65009;SDS011;51556;50.002;22.014;2023-08-12T00:55:11;6.70;;;3.20;;
65009;SDS011;51556;50.002;22.014;2023-08-12T00:57:37;9.20;;;3.90;;
65009;SDS011;51556;50.002;22.014;2023-08-12T01:00:02;7.50;;;3.30;;
65009;SDS011;51556;50.002;22.014;2023-08-12T01:02:29;7.60;;;3.40;;
65009;SDS011;51556;50.002;22.014;2023-08-12T01:04:55;5.30;;;3.60;;
65009;SDS011;51556;50.002;22.014;2023-08-12T01:07:20;10.30;;;3.40;;
65009;SDS011;51556;50.002;22.014;2023-08-12T01:09:46;6.70;;;3.60;;
65009;SDS011;51556;50.002;22.014;2023-08-12T01:12:25;5.00;;;3.20;;
65009;SDS011;51556;50.002;22.014;2023-08-12T01:17:30;6.00;;;3.60;;
65009;SDS011;51556;50.002;22.014;2023-08-12T01:19:58;8.60;;;3.90;;
65009;SDS011;51556;50.002;22.014;2023-08-12T01:22:25;5.00;;;3.50;;
65009;SDS011;51556;50.002;22.014;2023-08-12T01:24:57;6.40;;;3.80;;
65009;SDS011;51556;50.002;22.014;2023-08-12T01:27:23;5.30;;;3.50;;
65009;SDS011;51556;50.002;22.014;2023-08-12T01:29:49;7.10;;;3.30;;
65009;SDS011;51556;50.002;22.014;2023-08-12T01:37:47;6.10;;;3.20;;
65009;SDS011;51556;50.002;22.014;2023-08-12T01:40:15;6.90;;;3.60;;
65009;SDS011;51556;50.002;22.014;2023-08-12T01:42:43;6.60;;;3.00;;
65009;SDS011;51556;50.002;22.014;2023-08-12T01:45:10;7.00;;;3.60;;
65009;SDS011;51556;50.002;22.014;2023-08-12T01:47:36;6.70;;;3.40;;
65009;SDS011;51556;50.002;22.014;2023-08-12T01:50:01;5.00;;;3.50;;
65009;SDS011;51556;50.002;22.014;2023-08-12T01:52:27;6.20;;;3.60;;
65009;SDS011;51556;50.002;22.014;2023-08-12T01:54:54;9.20;;;3.60;;
65009;SDS011;51556;50.002;22.014;2023-08-12T01:57:20;7.00;;;4.10;;
65009;SDS011;51556;50.002;22.014;2023-08-12T01:59:45;9.10;;;3.70;;
65009;SDS011;51556;50.002;22.014;2023-08-12T02:02:11;6.20;;;3.30;;
65009;SDS011;51556;50.002;22.014;2023-08-12T02:04:39;5.80;;;3.50;;
65009;SDS011;51556;50.002;22.014;2023-08-12T02:07:05;9.10;;;3.90;;
65009;SDS011;51556;50.002;22.014;2023-08-12T02:09:31;8.50;;;3.50;;
65009;SDS011;51556;50.002;22.014;2023-08-12T02:11:56;7.40;;;3.60;;
65009;SDS011;51556;50.002;22.014;2023-08-12T02:14:22;7.60;;;4.10;;
65009;SDS011;51556;50.002;22.014;2023-08-12T02:16:48;6.50;;;3.70;;
65009;SDS011;51556;50.002;22.014;2023-08-12T02:19:13;4.80;;;3.30;;
65009;SDS011;51556;50.002;22.014;2023-08-12T02:21:39;5.60;;;3.60;;
65009;SDS011;51556;50.002;22.014;2023-08-12T02:24:04;6.00;;;3.40;;
65009;SDS011;51556;50.002;22.014;2023-08-12T02:26:30;4.90;;;3.10;;
65009;SDS011;51556;50.002;22.014;2023-08-12T02:28:55;6.30;;;3.40;;
65009;SDS011;51556;50.002;22.014;2023-08-12T02:31:21;6.20;;;3.80;;
65009;SDS011;51556;50.002;22.014;2023-08-12T02:33:46;7.10;;;3.60;;
65009;SDS011;51556;50.002;22.014;2023-08-12T02:36:12;5.50;;;3.70;;
65009;SDS011;51556;50.002;22.014;2023-08-12T02:38:37;5.00;;;3.30;;
65009;SDS011;51556;50.002;22.014;2023-08-12T02:41:02;4.80;;;3.30;;
65009;SDS011;51556;50.002;22.014;2023-08-12T02:43:28;7.30;;;3.40;;
65009;SDS011;51556;50.002;22.014;2023-08-12T02:45:53;5.80;;;3.20;;
65009;SDS011;51556;50.002;22.014;2023-08-12T02:48:19;7.00;;;3.40;;
65009;SDS011;51556;50.002;22.014;2023-08-12T02:50:44;5.80;;;3.40;;
65009;SDS011;51556;50.002;22.014;2023-08-12T02:53:10;6.10;;;3.80;;
65009;SDS011;51556;50.002;22.014;2023-08-12T02:55:35;6.70;;;2.90;;
65009;SDS011;51556;50.002;22.014;2023-08-12T02:58:03;5.50;;;3.60;;
65009;SDS011;51556;50.002;22.014;2023-08-12T03:00:29;8.10;;;3.60;;
65009;SDS011;51556;50.002;22.014;2023-08-12T03:02:54;6.20;;;3.40;;
65009;SDS011;51556;50.002;22.014;2023-08-12T03:05:20;6.90;;;3.60;;
65009;SDS011;51556;50.002;22.014;2023-08-12T03:07:46;5.30;;;3.60;;
65009;SDS011;51556;50.002;22.014;2023-08-12T03:10:11;4.90;;;3.30;;
65009;SDS011;51556;50.002;22.014;2023-08-12T03:12:37;7.60;;;3.40;;
65009;SDS011;51556;50.002;22.014;2023-08-12T03:15:03;7.20;;;3.30;;
65009;SDS011;51556;50.002;22.014;2023-08-12T03:17:30;4.00;;;3.00;;
65009;SDS011;51556;50.002;22.014;2023-08-12T03:19:56;4.90;;;3.00;;
65009;SDS011;51556;50.002;22.014;2023-08-12T03:22:24;6.10;;;3.50;;
65009;SDS011;51556;50.002;22.014;2023-08-12T03:24:53;4.40;;;2.90;;
65009;SDS011;51556;50.002;22.014;2023-08-12T03:27:18;6.10;;;3.50;;
65009;SDS011;51556;50.002;22.014;2023-08-12T03:29:44;7.90;;;3.40;;
65009;SDS011;51556;50.002;22.014;2023-08-12T03:32:10;5.00;;;2.90;;
65009;SDS011;51556;50.002;22.014;2023-08-12T03:34:35;6.10;;;3.50;;
65009;SDS011;51556;50.002;22.014;2023-08-12T03:37:00;5.30;;;3.00;;
65009;SDS011;51556;50.002;22.014;2023-08-12T03:39:26;8.60;;;3.80;;
65009;SDS011;51556;50.002;22.014;2023-08-12T03:41:51;6.40;;;2.90;;
65009;SDS011;51556;50.002;22.014;2023-08-12T03:44:18;6.10;;;3.00;;
65009;SDS011;51556;50.002;22.014;2023-08-12T03:46:43;5.70;;;3.10;;
65009;SDS011;51556;50.002;22.014;2023-08-12T03:49:08;4.20;;;2.80;;
65009;SDS011;51556;50.002;22.014;2023-08-12T03:51:34;7.90;;;3.20;;
65009;SDS011;51556;50.002;22.014;2023-08-12T03:53:59;4.80;;;3.10;;
65009;SDS011;51556;50.002;22.014;2023-08-12T03:56:25;4.50;;;3.10;;
65009;SDS011;51556;50.002;22.014;2023-08-12T03:58:51;4.80;;;3.00;;
65009;SDS011;51556;50.002;22.014;2023-08-12T04:01:16;4.90;;;3.20;;
65009;SDS011;51556;50.002;22.014;2023-08-12T04:03:42;5.90;;;3.20;;
65009;SDS011;51556;50.002;22.014;2023-08-12T04:06:07;4.70;;;3.30;;
65009;SDS011;51556;50.002;22.014;2023-08-12T04:08:33;6.60;;;3.30;;
65009;SDS011;51556;50.002;22.014;2023-08-12T04:10:59;5.80;;;3.10;;
65009;SDS011;51556;50.002;22.014;2023-08-12T04:13:24;8.70;;;3.40;;
65009;SDS011;51556;50.002;22.014;2023-08-12T04:15:50;5.20;;;3.60;;
65009;SDS011;51556;50.002;22.014;2023-08-12T04:18:18;5.10;;;3.20;;
65009;SDS011;51556;50.002;22.014;2023-08-12T04:20:44;7.30;;;3.30;;
65009;SDS011;51556;50.002;22.014;2023-08-12T04:23:12;4.40;;;3.10;;
65009;SDS011;51556;50.002;22.014;2023-08-12T04:25:38;4.20;;;3.00;;
65009;SDS011;51556;50.002;22.014;2023-08-12T04:28:03;4.30;;;3.10;;
65009;SDS011;51556;50.002;22.014;2023-08-12T04:30:29;5.90;;;3.10;;
65009;SDS011;51556;50.002;22.014;2023-08-12T04:32:54;5.00;;;3.10;;
65009;SDS011;51556;50.002;22.014;2023-08-12T04:35:20;3.80;;;2.90;;
65009;SDS011;51556;50.002;22.014;2023-08-12T04:37:45;4.40;;;3.20;;
65009;SDS011;51556;50.002;22.014;2023-08-12T04:40:11;6.90;;;3.50;;
65009;SDS011;51556;50.002;22.014;2023-08-12T04:42:36;4.90;;;3.10;;
65009;SDS011;51556;50.002;22.014;2023-08-12T04:45:02;8.10;;;2.90;;
65009;SDS011;51556;50.002;22.014;2023-08-12T04:47:28;5.70;;;3.10;;
65009;SDS011;51556;50.002;22.014;2023-08-12T04:49:54;7.40;;;3.20;;
65009;SDS011;51556;50.002;22.014;2023-08-12T04:52:19;7.00;;;3.60;;
65009;SDS011;51556;50.002;22.014;2023-08-12T04:54:45;6.90;;;3.00;;
65009;SDS011;51556;50.002;22.014;2023-08-12T04:57:11;7.50;;;3.60;;
65009;SDS011;51556;50.002;22.014;2023-08-12T04:59:37;6.40;;;3.20;;
65009;SDS011;51556;50.002;22.014;2023-08-12T05:02:02;5.10;;;3.20;;
65009;SDS011;51556;50.002;22.014;2023-08-12T05:04:28;6.00;;;3.10;;
65009;SDS011;51556;50.002;22.014;2023-08-12T05:06:53;4.30;;;2.80;;
65009;SDS011;51556;50.002;22.014;2023-08-12T05:09:19;6.00;;;3.20;;
65009;SDS011;51556;50.002;22.014;2023-08-12T05:11:44;4.20;;;3.00;;
65009;SDS011;51556;50.002;22.014;2023-08-12T05:14:09;4.10;;;2.90;;
65009;SDS011;51556;50.002;22.014;2023-08-12T05:16:35;4.10;;;2.80;;
65009;SDS011;51556;50.002;22.014;2023-08-12T05:19:00;6.70;;;3.50;;
65009;SDS011;51556;50.002;22.014;2023-08-12T05:21:26;5.10;;;3.00;;
65009;SDS011;51556;50.002;22.014;2023-08-12T05:23:52;4.60;;;2.90;;
65009;SDS011;51556;50.002;22.014;2023-08-12T05:26:17;5.10;;;2.90;;
65009;SDS011;51556;50.002;22.014;2023-08-12T05:28:42;6.40;;;3.30;;
65009;SDS011;51556;50.002;22.014;2023-08-12T05:31:08;7.60;;;2.90;;
65009;SDS011;51556;50.002;22.014;2023-08-12T05:33:33;6.40;;;3.60;;
65009;SDS011;51556;50.002;22.014;2023-08-12T05:35:59;6.80;;;3.40;;
65009;SDS011;51556;50.002;22.014;2023-08-12T05:38:24;5.00;;;3.10;;
65009;SDS011;51556;50.002;22.014;2023-08-12T05:40:50;6.80;;;3.10;;
65009;SDS011;51556;50.002;22.014;2023-08-12T05:43:15;6.00;;;3.10;;
65009;SDS011;51556;50.002;22.014;2023-08-12T05:45:41;6.90;;;3.10;;
65009;SDS011;51556;50.002;22.014;2023-08-12T05:48:07;4.10;;;3.00;;
65009;SDS011;51556;50.002;22.014;2023-08-12T05:50:33;5.70;;;3.00;;
65009;SDS011;51556;50.002;22.014;2023-08-12T05:53:01;7.70;;;3.90;;
65009;SDS011;51556;50.002;22.014;2023-08-12T05:55:27;5.30;;;3.40;;
65009;SDS011;51556;50.002;22.014;2023-08-12T05:57:52;5.90;;;3.20;;
65009;SDS011;51556;50.002;22.014;2023-08-12T06:00:17;8.70;;;3.30;;
65009;SDS011;51556;50.002;22.014;2023-08-12T06:02:43;6.20;;;3.30;;
65009;SDS011;51556;50.002;22.014;2023-08-12T06:05:08;5.20;;;3.10;;
65009;SDS011;51556;50.002;22.014;2023-08-12T06:07:34;8.20;;;3.60;;
65009;SDS011;51556;50.002;22.014;2023-08-12T06:10:00;4.00;;;3.00;;
65009;SDS011;51556;50.002;22.014;2023-08-12T06:12:26;4.90;;;3.10;;
65009;SDS011;51556;50.002;22.014;2023-08-12T06:14:51;4.90;;;2.80;;
65009;SDS011;51556;50.002;22.014;2023-08-12T06:17:17;7.70;;;3.00;;
65009;SDS011;51556;50.002;22.014;2023-08-12T06:19:48;7.50;;;3.30;;
65009;SDS011;51556;50.002;22.014;2023-08-12T06:22:19;5.80;;;3.20;;
65009;SDS011;51556;50.002;22.014;2023-08-12T06:24:48;5.30;;;2.60;;
65009;SDS011;51556;50.002;22.014;2023-08-12T06:27:16;7.60;;;3.10;;
65009;SDS011;51556;50.002;22.014;2023-08-12T06:29:41;7.30;;;3.20;;
65009;SDS011;51556;50.002;22.014;2023-08-12T06:32:07;6.20;;;2.90;;
65009;SDS011;51556;50.002;22.014;2023-08-12T06:34:32;4.20;;;3.10;;
65009;SDS011;51556;50.002;22.014;2023-08-12T06:37:04;4.00;;;3.10;;
65009;SDS011;51556;50.002;22.014;2023-08-12T06:39:29;5.50;;;3.00;;
65009;SDS011;51556;50.002;22.014;2023-08-12T06:41:55;8.00;;;3.20;;
65009;SDS011;51556;50.002;22.014;2023-08-12T06:44:20;4.80;;;3.20;;
65009;SDS011;51556;50.002;22.014;2023-08-12T06:46:48;9.10;;;3.20;;
65009;SDS011;51556;50.002;22.014;2023-08-12T06:49:14;6.90;;;3.40;;
65009;SDS011;51556;50.002;22.014;2023-08-12T06:52:06;5.70;;;3.10;;
65009;SDS011;51556;50.002;22.014;2023-08-12T06:54:54;6.90;;;3.20;;
65009;SDS011;51556;50.002;22.014;2023-08-12T06:57:37;4.50;;;2.90;;
65009;SDS011;51556;50.002;22.014;2023-08-12T07:00:05;5.80;;;3.10;;
65009;SDS011;51556;50.002;22.014;2023-08-12T07:02:31;7.80;;;3.50;;
65009;SDS011;51556;50.002;22.014;2023-08-12T07:05:05;8.60;;;3.20;;
65009;SDS011;51556;50.002;22.014;2023-08-12T07:07:35;5.00;;;3.00;;
65009;SDS011;51556;50.002;22.014;2023-08-12T07:10:31;7.10;;;3.20;;
65009;SDS011;51556;50.002;22.014;2023-08-12T07:13:08;5.90;;;2.60;;
65009;SDS011;51556;50.002;22.014;2023-08-12T07:15:39;5.30;;;3.20;;
65009;SDS011;51556;50.002;22.014;2023-08-12T07:18:18;4.50;;;2.90;;
65009;SDS011;51556;50.002;22.014;2023-08-12T07:20:48;5.50;;;2.90;;
65009;SDS011;51556;50.002;22.014;2023-08-12T07:23:26;5.30;;;2.90;;
65009;SDS011;51556;50.002;22.014;2023-08-12T07:25:54;5.10;;;2.60;;
65009;SDS011;51556;50.002;22.014;2023-08-12T07:28:23;6.90;;;2.90;;
65009;SDS011;51556;50.002;22.014;2023-08-12T07:30:49;4.10;;;2.90;;
65009;SDS011;51556;50.002;22.014;2023-08-12T07:33:17;6.20;;;3.00;;
65009;SDS011;51556;50.002;22.014;2023-08-12T07:35:43;5.30;;;3.00;;
65009;SDS011;51556;50.002;22.014;2023-08-12T07:38:08;4.40;;;2.30;;
65009;SDS011;51556;50.002;22.014;2023-08-12T07:40:36;5.10;;;2.60;;
65009;SDS011;51556;50.002;22.014;2023-08-12T07:43:02;4.50;;;2.60;;
65009;SDS011;51556;50.002;22.014;2023-08-12T07:45:30;5.90;;;2.60;;
65009;SDS011;51556;50.002;22.014;2023-08-12T07:47:55;4.60;;;2.70;;
65009;SDS011;51556;50.002;22.014;2023-08-12T07:50:21;4.10;;;2.30;;
65009;SDS011;51556;50.002;22.014;2023-08-12T07:52:47;3.70;;;2.30;;
65009;SDS011;51556;50.002;22.014;2023-08-12T07:55:18;4.40;;;2.30;;
65009;SDS011;51556;50.002;22.014;2023-08-12T07:57:44;4.50;;;2.70;;
65009;SDS011;51556;50.002;22.014;2023-08-12T08:00:11;4.20;;;2.50;;
65009;SDS011;51556;50.002;22.014;2023-08-12T08:02:37;5.60;;;2.50;;
65009;SDS011;51556;50.002;22.014;2023-08-12T08:05:03;4.60;;;2.20;;
65009;SDS011;51556;50.002;22.014;2023-08-12T08:07:30;6.60;;;2.80;;
65009;SDS011;51556;50.002;22.014;2023-08-12T08:09:56;5.90;;;2.40;;
65009;SDS011;51556;50.002;22.014;2023-08-12T08:12:24;4.30;;;2.10;;
65009;SDS011;51556;50.002;22.014;2023-08-12T08:14:50;8.30;;;2.50;;
65009;SDS011;51556;50.002;22.014;2023-08-12T08:17:15;3.30;;;2.20;;
65009;SDS011;51556;50.002;22.014;2023-08-12T08:19:41;6.80;;;2.00;;
65009;SDS011;51556;50.002;22.014;2023-08-12T08:22:06;3.90;;;2.00;;
65009;SDS011;51556;50.002;22.014;2023-08-12T08:24:32;2.90;;;2.00;;
65009;SDS011;51556;50.002;22.014;2023-08-12T08:26:57;4.40;;;2.00;;
65009;SDS011;51556;50.002;22.014;2023-08-12T08:29:23;6.60;;;2.20;;
65009;SDS011;51556;50.002;22.014;2023-08-12T08:31:49;3.30;;;2.10;;
65009;SDS011;51556;50.002;22.014;2023-08-12T08:34:15;4.20;;;2.10;;
65009;SDS011;51556;50.002;22.014;2023-08-12T08:36:41;4.00;;;2.70;;
65009;SDS011;51556;50.002;22.014;2023-08-12T08:39:06;3.00;;;1.80;;
65009;SDS011;51556;50.002;22.014;2023-08-12T08:41:32;3.20;;;2.20;;
65009;SDS011;51556;50.002;22.014;2023-08-12T08:44:03;2.60;;;1.80;;
65009;SDS011;51556;50.002;22.014;2023-08-12T08:46:32;4.60;;;2.20;;
65009;SDS011;51556;50.002;22.014;2023-08-12T08:48:58;5.50;;;2.00;;
65009;SDS011;51556;50.002;22.014;2023-08-12T08:51:26;5.40;;;2.50;;
65009;SDS011;51556;50.002;22.014;2023-08-12T08:53:54;7.40;;;2.30;;
65009;SDS011;51556;50.002;22.014;2023-08-12T08:56:22;4.30;;;2.00;;
65009;SDS011;51556;50.002;22.014;2023-08-12T08:58:48;3.60;;;2.10;;
65009;SDS011;51556;50.002;22.014;2023-08-12T09:01:14;2.70;;;1.90;;
65009;SDS011;51556;50.002;22.014;2023-08-12T09:03:43;2.40;;;1.70;;
65009;SDS011;51556;50.002;22.014;2023-08-12T09:06:09;5.10;;;1.90;;
65009;SDS011;51556;50.002;22.014;2023-08-12T09:08:34;4.00;;;2.00;;
65009;SDS011;51556;50.002;22.014;2023-08-12T09:11:02;3.30;;;2.20;;
65009;SDS011;51556;50.002;22.014;2023-08-12T09:13:31;3.40;;;1.90;;
65009;SDS011;51556;50.002;22.014;2023-08-12T09:15:56;2.80;;;2.20;;
65009;SDS011;51556;50.002;22.014;2023-08-12T09:18:22;4.50;;;2.30;;
65009;SDS011;51556;50.002;22.014;2023-08-12T09:20:50;5.60;;;1.90;;
65009;SDS011;51556;50.002;22.014;2023-08-12T09:23:15;7.70;;;2.60;;
65009;SDS011;51556;50.002;22.014;2023-08-12T09:25:43;3.00;;;2.10;;
65009;SDS011;51556;50.002;22.014;2023-08-12T09:28:12;4.00;;;2.00;;
65009;SDS011;51556;50.002;22.014;2023-08-12T09:30:38;5.40;;;1.90;;
65009;SDS011;51556;50.002;22.014;2023-08-12T09:33:05;3.80;;;2.20;;
65009;SDS011;51556;50.002;22.014;2023-08-12T09:35:41;4.40;;;1.50;;
65009;SDS011;51556;50.002;22.014;2023-08-12T09:38:15;3.50;;;1.50;;
65009;SDS011;51556;50.002;22.014;2023-08-12T09:40:46;3.30;;;1.90;;
65009;SDS011;51556;50.002;22.014;2023-08-12T09:43:22;3.60;;;1.90;;
65009;SDS011;51556;50.002;22.014;2023-08-12T09:46:03;6.80;;;2.00;;
65009;SDS011;51556;50.002;22.014;2023-08-12T09:48:29;2.60;;;1.90;;
65009;SDS011;51556;50.002;22.014;2023-08-12T09:50:54;4.50;;;2.00;;
65009;SDS011;51556;50.002;22.014;2023-08-12T09:53:23;4.70;;;2.00;;
65009;SDS011;51556;50.002;22.014;2023-08-12T09:56:11;3.30;;;2.10;;
65009;SDS011;51556;50.002;22.014;2023-08-12T09:58:50;3.80;;;1.70;;
65009;SDS011;51556;50.002;22.014;2023-08-12T10:01:38;2.60;;;1.60;;
65009;SDS011;51556;50.002;22.014;2023-08-12T10:04:13;5.80;;;2.00;;
65009;SDS011;51556;50.002;22.014;2023-08-12T10:09:42;1.90;;;1.60;;
65009;SDS011;51556;50.002;22.014;2023-08-12T10:12:09;5.90;;;2.10;;
65009;SDS011;51556;50.002;22.014;2023-08-12T10:14:37;5.40;;;1.80;;
65009;SDS011;51556;50.002;22.014;2023-08-12T10:17:10;4.70;;;1.70;;
65009;SDS011;51556;50.002;22.014;2023-08-12T10:19:43;2.60;;;1.30;;
65009;SDS011;51556;50.002;22.014;2023-08-12T10:22:14;2.80;;;1.50;;
65009;SDS011;51556;50.002;22.014;2023-08-12T10:24:43;3.10;;;1.40;;
65009;SDS011;51556;50.002;22.014;2023-08-12T10:27:11;2.70;;;1.50;;
65009;SDS011;51556;50.002;22.014;2023-08-12T10:29:39;2.50;;;1.70;;
65009;SDS011;51556;50.002;22.014;2023-08-12T10:32:10;5.90;;;1.70;;
65009;SDS011;51556;50.002;22.014;2023-08-12T10:34:46;2.20;;;1.50;;
65009;SDS011;51556;50.002;22.014;2023-08-12T10:40:19;3.60;;;1.60;;
65009;SDS011;51556;50.002;22.014;2023-08-12T10:42:47;3.00;;;1.50;;
65009;SDS011;51556;50.002;22.014;2023-08-12T10:45:15;2.90;;;1.40;;
65009;SDS011;51556;50.002;22.014;2023-08-12T10:50:59;1.90;;;1.40;;
65009;SDS011;51556;50.002;22.014;2023-08-12T10:53:27;2.10;;;1.30;;
65009;SDS011;51556;50.002;22.014;2023-08-12T10:56:15;2.90;;;1.30;;
65009;SDS011;51556;50.002;22.014;2023-08-12T10:58:41;3.00;;;1.50;;
65009;SDS011;51556;50.002;22.014;2023-08-12T11:01:13;3.70;;;1.40;;
65009;SDS011;51556;50.002;22.014;2023-08-12T11:03:43;4.40;;;1.50;;
65009;SDS011;51556;50.002;22.014;2023-08-12T11:06:11;3.40;;;1.60;;
65009;SDS011;51556;50.002;22.014;2023-08-12T11:08:45;2.20;;;1.30;;
65009;SDS011;51556;50.002;22.014;2023-08-12T11:11:22;2.90;;;1.70;;
65009;SDS011;51556;50.002;22.014;2023-08-12T11:13:56;2.70;;;1.30;;
65009;SDS011;51556;50.002;22.014;2023-08-12T11:16:34;2.70;;;1.40;;
65009;SDS011;51556;50.002;22.014;2023-08-12T11:19:00;2.90;;;1.40;;
65009;SDS011;51556;50.002;22.014;2023-08-12T11:21:27;2.70;;;1.60;;
65009;SDS011;51556;50.002;22.014;2023-08-12T11:23:54;2.90;;;1.70;;
65009;SDS011;51556;50.002;22.014;2023-08-12T11:26:21;2.80;;;1.40;;
65009;SDS011;51556;50.002;22.014;2023-08-12T11:28:49;2.20;;;1.40;;
65009;SDS011;51556;50.002;22.014;2023-08-12T11:31:15;1.90;;;1.40;;
65009;SDS011;51556;50.002;22.014;2023-08-12T11:33:41;4.70;;;1.80;;
65009;SDS011;51556;50.002;22.014;2023-08-12T11:36:09;2.00;;;1.20;;
65009;SDS011;51556;50.002;22.014;2023-08-12T11:38:35;3.90;;;1.50;;
65009;SDS011;51556;50.002;22.014;2023-08-12T11:41:01;2.50;;;1.80;;
65009;SDS011;51556;50.002;22.014;2023-08-12T11:43:28;2.60;;;1.30;;
65009;SDS011;51556;50.002;22.014;2023-08-12T11:45:55;2.20;;;1.40;;
65009;SDS011;51556;50.002;22.014;2023-08-12T11:48:24;1.70;;;1.40;;
65009;SDS011;51556;50.002;22.014;2023-08-12T11:50:52;2.90;;;1.30;;
65009;SDS011;51556;50.002;22.014;2023-08-12T11:53:18;3.20;;;1.50;;
65009;SDS011;51556;50.002;22.014;2023-08-12T11:55:44;1.70;;;1.20;;
65009;SDS011;51556;50.002;22.014;2023-08-12T11:58:11;4.90;;;1.40;;
65009;SDS011;51556;50.002;22.014;2023-08-12T12:00:38;3.50;;;1.40;;
65009;SDS011;51556;50.002;22.014;2023-08-12T12:03:04;3.90;;;1.60;;
65009;SDS011;51556;50.002;22.014;2023-08-12T12:05:31;6.00;;;1.50;;
65009;SDS011;51556;50.002;22.014;2023-08-12T12:07:59;2.80;;;1.70;;
65009;SDS011;51556;50.002;22.014;2023-08-12T12:10:28;2.80;;;1.40;;
65009;SDS011;51556;50.002;22.014;2023-08-12T12:12:56;4.10;;;1.50;;
65009;SDS011;51556;50.002;22.014;2023-08-12T12:15:22;2.40;;;1.30;;
65009;SDS011;51556;50.002;22.014;2023-08-12T12:17:48;3.30;;;1.50;;
65009;SDS011;51556;50.002;22.014;2023-08-12T12:20:14;2.70;;;1.80;;
65009;SDS011;51556;50.002;22.014;2023-08-12T12:22:41;3.20;;;1.50;;
65009;SDS011;51556;50.002;22.014;2023-08-12T12:25:11;1.90;;;1.40;;
65009;SDS011;51556;50.002;22.014;2023-08-12T12:30:34;4.10;;;1.40;;
65009;SDS011;51556;50.002;22.014;2023-08-12T12:33:01;2.70;;;1.20;;
65009;SDS011;51556;50.002;22.014;2023-08-12T12:35:37;11.90;;;2.70;;
65009;SDS011;51556;50.002;22.014;2023-08-12T12:38:03;3.00;;;1.40;;
65009;SDS011;51556;50.002;22.014;2023-08-12T12:40:40;1.80;;;1.40;;
65009;SDS011;51556;50.002;22.014;2023-08-12T12:43:05;4.30;;;1.90;;
65009;SDS011;51556;50.002;22.014;2023-08-12T12:45:40;2.80;;;2.20;;
65009;SDS011;51556;50.002;22.014;2023-08-12T12:48:29;2.70;;;1.60;;
65009;SDS011;51556;50.002;22.014;2023-08-12T12:50:57;4.20;;;1.50;;
65009;SDS011;51556;50.002;22.014;2023-08-12T12:53:22;2.70;;;1.60;;
65009;SDS011;51556;50.002;22.014;2023-08-12T12:55:48;4.20;;;1.60;;
65009;SDS011;51556;50.002;22.014;2023-08-12T12:58:14;3.60;;;1.60;;
65009;SDS011;51556;50.002;22.014;2023-08-12T13:00:42;4.90;;;1.50;;
65009;SDS011;51556;50.002;22.014;2023-08-12T13:03:07;1.90;;;1.30;;
65009;SDS011;51556;50.002;22.014;2023-08-12T13:05:33;3.10;;;1.70;;
65009;SDS011;51556;50.002;22.014;2023-08-12T13:13:49;2.30;;;1.40;;
65009;SDS011;51556;50.002;22.014;2023-08-12T13:16:34;2.90;;;1.80;;
65009;SDS011;51556;50.002;22.014;2023-08-12T13:22:37;1.90;;;1.50;;
65009;SDS011;51556;50.002;22.014;2023-08-12T13:25:32;2.30;;;1.50;;
65009;SDS011;51556;50.002;22.014;2023-08-12T13:34:38;2.50;;;1.10;;
65009;SDS011;51556;50.002;22.014;2023-08-12T13:37:11;2.30;;;1.50;;
65009;SDS011;51556;50.002;22.014;2023-08-12T13:39:46;3.40;;;1.40;;
65009;SDS011;51556;50.002;22.014;2023-08-12T13:45:39;2.30;;;1.40;;
65009;SDS011;51556;50.002;22.014;2023-08-12T13:48:31;2.30;;;1.40;;
65009;SDS011;51556;50.002;22.014;2023-08-12T13:55:02;3.00;;;1.50;;
65009;SDS011;51556;50.002;22.014;2023-08-12T13:57:48;5.00;;;1.90;;
65009;SDS011;51556;50.002;22.014;2023-08-12T14:00:23;3.30;;;1.40;;
65009;SDS011;51556;50.002;22.014;2023-08-12T14:02:52;5.00;;;1.80;;
65009;SDS011;51556;50.002;22.014;2023-08-12T14:12:30;2.70;;;1.60;;
65009;SDS011;51556;50.002;22.014;2023-08-12T14:18:43;3.60;;;1.40;;
65009;SDS011;51556;50.002;22.014;2023-08-12T14:28:38;3.00;;;1.30;;
65009;SDS011;51556;50.002;22.014;2023-08-12T14:31:24;3.20;;;1.40;;
65009;SDS011;51556;50.002;22.014;2023-08-12T14:44:44;2.40;;;1.40;;
65009;SDS011;51556;50.002;22.014;2023-08-12T14:47:10;3.80;;;1.70;;
65009;SDS011;51556;50.002;22.014;2023-08-12T14:53:51;3.00;;;1.90;;
65009;SDS011;51556;50.002;22.014;2023-08-12T14:56:44;5.70;;;1.80;;
65009;SDS011;51556;50.002;22.014;2023-08-12T14:59:09;5.10;;;1.70;;
65009;SDS011;51556;50.002;22.014;2023-08-12T15:05:11;3.90;;;1.60;;
65009;SDS011;51556;50.002;22.014;2023-08-12T15:07:45;3.60;;;1.70;;
65009;SDS011;51556;50.002;22.014;2023-08-12T15:10:11;2.10;;;1.80;;
65009;SDS011;51556;50.002;22.014;2023-08-12T15:12:36;4.00;;;1.70;;
65009;SDS011;51556;50.002;22.014;2023-08-12T15:25:23;2.40;;;1.60;;
65009;SDS011;51556;50.002;22.014;2023-08-12T15:37:35;1.90;;;1.50;;
65009;SDS011;51556;50.002;22.014;2023-08-12T15:43:50;3.00;;;1.90;;
65009;SDS011;51556;50.002;22.014;2023-08-12T15:46:24;2.90;;;1.60;;
65009;SDS011;51556;50.002;22.014;2023-08-12T15:49:20;2.50;;;1.70;;
65009;SDS011;51556;50.002;22.014;2023-08-12T15:51:55;4.90;;;1.80;;
65009;SDS011;51556;50.002;22.014;2023-08-12T15:54:36;3.90;;;1.70;;
65009;SDS011;51556;50.002;22.014;2023-08-12T15:57:09;2.70;;;1.60;;
65009;SDS011;51556;50.002;22.014;2023-08-12T15:59:35;2.00;;;1.70;;
65009;SDS011;51556;50.002;22.014;2023-08-12T16:02:00;2.40;;;1.80;;
65009;SDS011;51556;50.002;22.014;2023-08-12T16:04:29;5.60;;;1.70;;
65009;SDS011;51556;50.002;22.014;2023-08-12T16:07:28;2.20;;;1.70;;
65009;SDS011;51556;50.002;22.014;2023-08-12T16:09:53;5.00;;;1.90;;
65009;SDS011;51556;50.002;22.014;2023-08-12T16:12:19;3.80;;;1.70;;
65009;SDS011;51556;50.002;22.014;2023-08-12T16:14:48;2.00;;;1.50;;
65009;SDS011;51556;50.002;22.014;2023-08-12T16:17:13;2.80;;;1.60;;
65009;SDS011;51556;50.002;22.014;2023-08-12T16:19:39;2.80;;;1.70;;
65009;SDS011;51556;50.002;22.014;2023-08-12T16:22:07;2.40;;;1.80;;
65009;SDS011;51556;50.002;22.014;2023-08-12T16:24:33;2.80;;;1.50;;